Ny info om parkering ved Klubbhytta PDF Skriv ut E-post
Skrevet av Per Norgaard   
torsdag 17. desember 2015 11:11

Styret i klubben ønsker å korrigere/presisere følgende: All parkering ved Klubbhytta skal kun skje ifm klubbaktivitet. Avinor vil ikke akseptere privat parkering som ikke er klubbrelatert. Misbruk vil utløse bøter, og kan medføre oppsigelse av leieforholdet.

 

 
«StartForrige12345678NesteSiste»

Side 8 av 8
 
METAR
2021/01/17 00:20 ENCN 170020Z AUTO 05011KT 9999 BKN013/// OVC022/// M05/M07 Q1017
TAF
2021/01/16 15:37 TAF ENCN 161400Z 1615/1618 07008KT 9999 BKN020
LN-KFK
Operativ VFR-natt
VFR dag
08:12 - 17:04
Brannvakt
Inaktiv
Banner
Banner
Banner
Banner
Banner